sensor_id;sensor_type;location;lat;lon;timestamp;P1;durP1;ratioP1;P2;durP2;ratioP2
19973;SDS011;10148;47.694;9.442;2023-01-16T00:01:54;0.30;;;0.30;;
19973;SDS011;10148;47.694;9.442;2023-01-16T00:04:22;3.07;;;0.37;;
19973;SDS011;10148;47.694;9.442;2023-01-16T00:06:48;2.53;;;0.40;;
19973;SDS011;10148;47.694;9.442;2023-01-16T00:09:13;0.20;;;0.20;;
19973;SDS011;10148;47.694;9.442;2023-01-16T00:11:39;1.80;;;0.90;;
19973;SDS011;10148;47.694;9.442;2023-01-16T00:14:05;0.50;;;0.30;;
19973;SDS011;10148;47.694;9.442;2023-01-16T00:16:30;0.20;;;0.20;;
19973;SDS011;10148;47.694;9.442;2023-01-16T00:18:56;1.27;;;0.40;;
19973;SDS011;10148;47.694;9.442;2023-01-16T00:21:22;0.20;;;0.13;;
19973;SDS011;10148;47.694;9.442;2023-01-16T00:23:54;2.03;;;0.30;;
19973;SDS011;10148;47.694;9.442;2023-01-16T00:26:22;0.33;;;0.20;;
19973;SDS011;10148;47.694;9.442;2023-01-16T00:28:48;1.83;;;0.30;;
19973;SDS011;10148;47.694;9.442;2023-01-16T00:31:14;0.40;;;0.10;;
19973;SDS011;10148;47.694;9.442;2023-01-16T00:33:40;0.20;;;0.20;;
19973;SDS011;10148;47.694;9.442;2023-01-16T00:36:07;1.00;;;0.33;;
19973;SDS011;10148;47.694;9.442;2023-01-16T00:38:33;0.37;;;0.20;;
19973;SDS011;10148;47.694;9.442;2023-01-16T00:40:59;1.10;;;0.40;;
19973;SDS011;10148;47.694;9.442;2023-01-16T00:43:25;0.30;;;0.20;;
19973;SDS011;10148;47.694;9.442;2023-01-16T00:45:51;2.07;;;0.27;;
19973;SDS011;10148;47.694;9.442;2023-01-16T00:48:16;2.13;;;0.30;;
19973;SDS011;10148;47.694;9.442;2023-01-16T00:50:42;1.93;;;0.30;;
19973;SDS011;10148;47.694;9.442;2023-01-16T00:53:07;0.23;;;0.20;;
19973;SDS011;10148;47.694;9.442;2023-01-16T00:55:34;0.40;;;0.30;;
19973;SDS011;10148;47.694;9.442;2023-01-16T00:58:01;2.67;;;0.33;;
19973;SDS011;10148;47.694;9.442;2023-01-16T01:00:29;1.23;;;0.30;;
19973;SDS011;10148;47.694;9.442;2023-01-16T01:02:55;0.60;;;0.33;;
19973;SDS011;10148;47.694;9.442;2023-01-16T01:05:20;1.13;;;0.20;;
19973;SDS011;10148;47.694;9.442;2023-01-16T01:07:46;1.13;;;0.23;;
19973;SDS011;10148;47.694;9.442;2023-01-16T01:10:12;0.30;;;0.30;;
19973;SDS011;10148;47.694;9.442;2023-01-16T01:12:37;0.23;;;0.23;;
19973;SDS011;10148;47.694;9.442;2023-01-16T01:15:03;0.87;;;0.30;;
19973;SDS011;10148;47.694;9.442;2023-01-16T01:17:29;0.30;;;0.23;;
19973;SDS011;10148;47.694;9.442;2023-01-16T01:19:55;2.60;;;0.50;;
19973;SDS011;10148;47.694;9.442;2023-01-16T01:22:20;1.50;;;0.30;;
19973;SDS011;10148;47.694;9.442;2023-01-16T01:24:46;0.40;;;0.30;;
19973;SDS011;10148;47.694;9.442;2023-01-16T01:27:12;2.13;;;0.43;;
19973;SDS011;10148;47.694;9.442;2023-01-16T01:29:38;0.50;;;0.30;;
19973;SDS011;10148;47.694;9.442;2023-01-16T01:32:03;2.50;;;0.40;;
19973;SDS011;10148;47.694;9.442;2023-01-16T01:34:30;0.83;;;0.50;;
19973;SDS011;10148;47.694;9.442;2023-01-16T01:36:58;3.50;;;0.60;;
19973;SDS011;10148;47.694;9.442;2023-01-16T01:39:29;0.83;;;0.47;;
19973;SDS011;10148;47.694;9.442;2023-01-16T01:41:55;0.50;;;0.40;;
19973;SDS011;10148;47.694;9.442;2023-01-16T01:44:49;0.67;;;0.30;;
19973;SDS011;10148;47.694;9.442;2023-01-16T01:47:22;1.13;;;0.57;;
19973;SDS011;10148;47.694;9.442;2023-01-16T01:49:52;1.53;;;0.40;;
19973;SDS011;10148;47.694;9.442;2023-01-16T01:52:19;0.70;;;0.40;;
19973;SDS011;10148;47.694;9.442;2023-01-16T01:54:48;1.53;;;0.50;;
19973;SDS011;10148;47.694;9.442;2023-01-16T01:57:27;0.70;;;0.43;;
19973;SDS011;10148;47.694;9.442;2023-01-16T01:59:59;2.13;;;0.40;;
19973;SDS011;10148;47.694;9.442;2023-01-16T02:02:31;2.57;;;0.50;;
19973;SDS011;10148;47.694;9.442;2023-01-16T02:05:03;2.00;;;0.60;;
19973;SDS011;10148;47.694;9.442;2023-01-16T02:07:30;0.73;;;0.30;;
19973;SDS011;10148;47.694;9.442;2023-01-16T02:10:07;0.57;;;0.47;;
19973;SDS011;10148;47.694;9.442;2023-01-16T02:12:52;0.77;;;0.50;;
19973;SDS011;10148;47.694;9.442;2023-01-16T02:15:19;1.03;;;0.40;;
19973;SDS011;10148;47.694;9.442;2023-01-16T02:17:47;0.73;;;0.50;;
19973;SDS011;10148;47.694;9.442;2023-01-16T02:20:34;2.40;;;0.93;;
19973;SDS011;10148;47.694;9.442;2023-01-16T02:29:06;0.37;;;0.30;;
19973;SDS011;10148;47.694;9.442;2023-01-16T02:32:10;1.03;;;0.30;;
19973;SDS011;10148;47.694;9.442;2023-01-16T02:35:06;1.23;;;0.20;;
19973;SDS011;10148;47.694;9.442;2023-01-16T02:37:44;0.50;;;0.30;;
19973;SDS011;10148;47.694;9.442;2023-01-16T02:42:44;0.27;;;0.20;;
19973;SDS011;10148;47.694;9.442;2023-01-16T02:46:03;1.13;;;0.30;;
19973;SDS011;10148;47.694;9.442;2023-01-16T02:50:58;0.43;;;0.30;;
19973;SDS011;10148;47.694;9.442;2023-01-16T02:53:33;1.43;;;0.30;;
19973;SDS011;10148;47.694;9.442;2023-01-16T02:56:07;0.80;;;0.50;;
19973;SDS011;10148;47.694;9.442;2023-01-16T02:58:37;1.80;;;0.37;;
19973;SDS011;10148;47.694;9.442;2023-01-16T03:01:06;0.43;;;0.30;;
19973;SDS011;10148;47.694;9.442;2023-01-16T03:03:37;1.30;;;0.60;;
19973;SDS011;10148;47.694;9.442;2023-01-16T03:12:27;0.20;;;0.20;;
19973;SDS011;10148;47.694;9.442;2023-01-16T03:17:33;0.50;;;0.30;;
19973;SDS011;10148;47.694;9.442;2023-01-16T03:20:29;1.40;;;0.30;;
19973;SDS011;10148;47.694;9.442;2023-01-16T03:23:15;0.63;;;0.30;;
19973;SDS011;10148;47.694;9.442;2023-01-16T03:26:26;2.43;;;0.50;;
19973;SDS011;10148;47.694;9.442;2023-01-16T03:29:08;2.23;;;0.50;;
19973;SDS011;10148;47.694;9.442;2023-01-16T03:32:17;0.60;;;0.30;;
19973;SDS011;10148;47.694;9.442;2023-01-16T03:37:22;0.47;;;0.30;;
19973;SDS011;10148;47.694;9.442;2023-01-16T03:39:51;0.50;;;0.40;;
19973;SDS011;10148;47.694;9.442;2023-01-16T03:42:42;1.70;;;0.60;;
19973;SDS011;10148;47.694;9.442;2023-01-16T03:45:15;0.70;;;0.50;;
19973;SDS011;10148;47.694;9.442;2023-01-16T03:47:47;0.77;;;0.70;;
19973;SDS011;10148;47.694;9.442;2023-01-16T03:50:16;0.60;;;0.60;;
19973;SDS011;10148;47.694;9.442;2023-01-16T03:52:46;1.50;;;0.80;;
19973;SDS011;10148;47.694;9.442;2023-01-16T03:55:17;1.60;;;0.67;;
19973;SDS011;10148;47.694;9.442;2023-01-16T03:57:57;3.00;;;0.73;;
19973;SDS011;10148;47.694;9.442;2023-01-16T04:00:31;3.03;;;1.23;;
19973;SDS011;10148;47.694;9.442;2023-01-16T04:03:28;0.73;;;0.70;;
19973;SDS011;10148;47.694;9.442;2023-01-16T04:06:01;0.87;;;0.77;;
19973;SDS011;10148;47.694;9.442;2023-01-16T04:08:37;0.80;;;0.60;;
19973;SDS011;10148;47.694;9.442;2023-01-16T04:11:07;0.83;;;0.77;;
19973;SDS011;10148;47.694;9.442;2023-01-16T04:13:37;2.80;;;0.80;;
19973;SDS011;10148;47.694;9.442;2023-01-16T04:16:06;2.03;;;0.70;;
19973;SDS011;10148;47.694;9.442;2023-01-16T04:18:34;3.27;;;0.50;;
19973;SDS011;10148;47.694;9.442;2023-01-16T04:21:03;2.20;;;0.60;;
19973;SDS011;10148;47.694;9.442;2023-01-16T04:23:29;1.60;;;0.90;;
19973;SDS011;10148;47.694;9.442;2023-01-16T04:25:55;0.93;;;0.70;;
19973;SDS011;10148;47.694;9.442;2023-01-16T04:28:21;1.33;;;0.70;;
19973;SDS011;10148;47.694;9.442;2023-01-16T04:30:46;0.80;;;0.60;;
19973;SDS011;10148;47.694;9.442;2023-01-16T04:33:12;1.37;;;0.60;;
19973;SDS011;10148;47.694;9.442;2023-01-16T04:35:37;0.87;;;0.80;;
19973;SDS011;10148;47.694;9.442;2023-01-16T04:38:03;0.60;;;0.50;;
19973;SDS011;10148;47.694;9.442;2023-01-16T04:40:28;0.47;;;0.40;;
19973;SDS011;10148;47.694;9.442;2023-01-16T04:42:54;0.70;;;0.60;;
19973;SDS011;10148;47.694;9.442;2023-01-16T04:45:22;1.77;;;0.70;;
19973;SDS011;10148;47.694;9.442;2023-01-16T04:47:49;2.13;;;0.50;;
19973;SDS011;10148;47.694;9.442;2023-01-16T04:50:15;1.43;;;0.70;;
19973;SDS011;10148;47.694;9.442;2023-01-16T04:52:41;1.50;;;0.73;;
19973;SDS011;10148;47.694;9.442;2023-01-16T04:55:08;0.40;;;0.40;;
19973;SDS011;10148;47.694;9.442;2023-01-16T04:57:34;0.90;;;0.70;;
19973;SDS011;10148;47.694;9.442;2023-01-16T05:00:00;0.83;;;0.63;;
19973;SDS011;10148;47.694;9.442;2023-01-16T05:02:26;0.53;;;0.50;;
19973;SDS011;10148;47.694;9.442;2023-01-16T05:04:52;1.53;;;0.70;;
19973;SDS011;10148;47.694;9.442;2023-01-16T05:07:17;0.83;;;0.50;;
19973;SDS011;10148;47.694;9.442;2023-01-16T05:09:43;0.83;;;0.53;;
19973;SDS011;10148;47.694;9.442;2023-01-16T05:12:08;1.17;;;0.90;;
19973;SDS011;10148;47.694;9.442;2023-01-16T05:14:34;1.67;;;0.57;;
19973;SDS011;10148;47.694;9.442;2023-01-16T05:16:59;0.50;;;0.50;;
19973;SDS011;10148;47.694;9.442;2023-01-16T05:19:25;0.90;;;0.40;;
19973;SDS011;10148;47.694;9.442;2023-01-16T05:21:50;0.67;;;0.40;;
19973;SDS011;10148;47.694;9.442;2023-01-16T05:24:16;1.03;;;0.67;;
19973;SDS011;10148;47.694;9.442;2023-01-16T05:26:41;0.70;;;0.47;;
19973;SDS011;10148;47.694;9.442;2023-01-16T05:29:07;0.30;;;0.30;;
19973;SDS011;10148;47.694;9.442;2023-01-16T05:31:33;0.57;;;0.40;;
19973;SDS011;10148;47.694;9.442;2023-01-16T05:33:58;0.30;;;0.30;;
19973;SDS011;10148;47.694;9.442;2023-01-16T05:36:24;2.00;;;0.50;;
19973;SDS011;10148;47.694;9.442;2023-01-16T05:38:49;0.50;;;0.50;;
19973;SDS011;10148;47.694;9.442;2023-01-16T05:41:16;0.70;;;0.40;;
19973;SDS011;10148;47.694;9.442;2023-01-16T05:43:41;0.60;;;0.40;;
19973;SDS011;10148;47.694;9.442;2023-01-16T05:46:07;0.37;;;0.33;;
19973;SDS011;10148;47.694;9.442;2023-01-16T05:48:32;1.80;;;0.40;;
19973;SDS011;10148;47.694;9.442;2023-01-16T05:51:00;0.40;;;0.23;;
19973;SDS011;10148;47.694;9.442;2023-01-16T05:53:26;0.30;;;0.30;;
19973;SDS011;10148;47.694;9.442;2023-01-16T05:55:53;1.93;;;0.53;;
19973;SDS011;10148;47.694;9.442;2023-01-16T05:58:18;0.53;;;0.40;;
19973;SDS011;10148;47.694;9.442;2023-01-16T06:00:44;0.20;;;0.20;;
19973;SDS011;10148;47.694;9.442;2023-01-16T06:03:09;0.60;;;0.40;;
19973;SDS011;10148;47.694;9.442;2023-01-16T06:05:35;0.67;;;0.30;;
19973;SDS011;10148;47.694;9.442;2023-01-16T06:08:01;0.63;;;0.30;;
19973;SDS011;10148;47.694;9.442;2023-01-16T06:10:27;1.17;;;0.40;;
19973;SDS011;10148;47.694;9.442;2023-01-16T06:12:53;0.50;;;0.40;;
19973;SDS011;10148;47.694;9.442;2023-01-16T06:15:18;0.40;;;0.40;;
19973;SDS011;10148;47.694;9.442;2023-01-16T06:17:44;0.73;;;0.63;;
19973;SDS011;10148;47.694;9.442;2023-01-16T06:20:10;1.57;;;1.00;;
19973;SDS011;10148;47.694;9.442;2023-01-16T06:22:36;1.33;;;0.97;;
19973;SDS011;10148;47.694;9.442;2023-01-16T06:25:02;1.00;;;0.80;;
19973;SDS011;10148;47.694;9.442;2023-01-16T06:27:28;8.43;;;5.10;;
19973;SDS011;10148;47.694;9.442;2023-01-16T06:29:54;0.73;;;0.60;;
19973;SDS011;10148;47.694;9.442;2023-01-16T06:32:20;0.60;;;0.60;;
19973;SDS011;10148;47.694;9.442;2023-01-16T06:34:45;0.70;;;0.70;;
19973;SDS011;10148;47.694;9.442;2023-01-16T06:37:11;0.50;;;0.50;;
19973;SDS011;10148;47.694;9.442;2023-01-16T06:39:37;0.43;;;0.23;;
19973;SDS011;10148;47.694;9.442;2023-01-16T06:42:02;0.70;;;0.70;;
19973;SDS011;10148;47.694;9.442;2023-01-16T06:44:30;0.67;;;0.50;;
19973;SDS011;10148;47.694;9.442;2023-01-16T06:46:55;0.30;;;0.30;;
19973;SDS011;10148;47.694;9.442;2023-01-16T06:49:21;0.63;;;0.40;;
19973;SDS011;10148;47.694;9.442;2023-01-16T06:51:47;0.43;;;0.43;;
19973;SDS011;10148;47.694;9.442;2023-01-16T06:54:12;2.17;;;0.83;;
19973;SDS011;10148;47.694;9.442;2023-01-16T06:56:38;2.93;;;1.50;;
19973;SDS011;10148;47.694;9.442;2023-01-16T06:59:03;2.47;;;1.40;;
19973;SDS011;10148;47.694;9.442;2023-01-16T07:01:29;3.50;;;1.83;;
19973;SDS011;10148;47.694;9.442;2023-01-16T07:03:55;2.23;;;1.23;;
19973;SDS011;10148;47.694;9.442;2023-01-16T07:06:20;6.37;;;2.20;;
19973;SDS011;10148;47.694;9.442;2023-01-16T07:08:46;5.47;;;1.77;;
19973;SDS011;10148;47.694;9.442;2023-01-16T07:11:17;4.23;;;1.57;;
19973;SDS011;10148;47.694;9.442;2023-01-16T07:13:43;2.97;;;1.83;;
19973;SDS011;10148;47.694;9.442;2023-01-16T07:16:10;1.77;;;1.20;;
19973;SDS011;10148;47.694;9.442;2023-01-16T07:18:55;2.00;;;1.10;;
19973;SDS011;10148;47.694;9.442;2023-01-16T07:21:39;5.60;;;1.87;;
19973;SDS011;10148;47.694;9.442;2023-01-16T07:24:25;1.03;;;0.80;;
19973;SDS011;10148;47.694;9.442;2023-01-16T07:26:55;0.80;;;0.50;;
19973;SDS011;10148;47.694;9.442;2023-01-16T07:29:22;0.60;;;0.60;;
19973;SDS011;10148;47.694;9.442;2023-01-16T07:31:49;2.47;;;1.50;;
19973;SDS011;10148;47.694;9.442;2023-01-16T07:34:15;4.07;;;2.03;;
19973;SDS011;10148;47.694;9.442;2023-01-16T07:36:41;2.23;;;1.27;;
19973;SDS011;10148;47.694;9.442;2023-01-16T07:39:06;1.47;;;1.23;;
19973;SDS011;10148;47.694;9.442;2023-01-16T07:41:32;8.37;;;1.67;;
19973;SDS011;10148;47.694;9.442;2023-01-16T07:43:57;1.00;;;0.87;;
19973;SDS011;10148;47.694;9.442;2023-01-16T07:46:23;1.60;;;0.83;;
19973;SDS011;10148;47.694;9.442;2023-01-16T07:48:49;2.53;;;0.83;;
19973;SDS011;10148;47.694;9.442;2023-01-16T07:51:16;1.30;;;1.00;;
19973;SDS011;10148;47.694;9.442;2023-01-16T07:53:42;1.13;;;0.73;;
19973;SDS011;10148;47.694;9.442;2023-01-16T07:56:07;2.00;;;0.83;;
19973;SDS011;10148;47.694;9.442;2023-01-16T07:58:33;2.47;;;0.80;;
19973;SDS011;10148;47.694;9.442;2023-01-16T08:00:59;0.63;;;0.43;;
19973;SDS011;10148;47.694;9.442;2023-01-16T08:03:24;0.87;;;0.87;;
19973;SDS011;10148;47.694;9.442;2023-01-16T08:05:54;1.07;;;0.70;;
19973;SDS011;10148;47.694;9.442;2023-01-16T08:08:21;0.30;;;0.30;;
19973;SDS011;10148;47.694;9.442;2023-01-16T08:10:46;1.07;;;0.70;;
19973;SDS011;10148;47.694;9.442;2023-01-16T08:13:12;1.87;;;0.90;;
19973;SDS011;10148;47.694;9.442;2023-01-16T08:15:37;1.57;;;1.03;;
19973;SDS011;10148;47.694;9.442;2023-01-16T08:18:03;1.00;;;0.80;;
19973;SDS011;10148;47.694;9.442;2023-01-16T08:20:28;1.23;;;0.80;;
19973;SDS011;10148;47.694;9.442;2023-01-16T08:22:54;0.43;;;0.43;;
19973;SDS011;10148;47.694;9.442;2023-01-16T08:25:21;0.63;;;0.60;;
19973;SDS011;10148;47.694;9.442;2023-01-16T08:27:49;0.60;;;0.47;;
19973;SDS011;10148;47.694;9.442;2023-01-16T08:30:15;0.47;;;0.47;;
19973;SDS011;10148;47.694;9.442;2023-01-16T08:32:41;0.60;;;0.60;;
19973;SDS011;10148;47.694;9.442;2023-01-16T08:35:07;0.63;;;0.50;;
19973;SDS011;10148;47.694;9.442;2023-01-16T08:37:33;2.40;;;0.70;;
19973;SDS011;10148;47.694;9.442;2023-01-16T08:39:59;1.00;;;0.57;;
19973;SDS011;10148;47.694;9.442;2023-01-16T08:42:26;0.77;;;0.77;;
19973;SDS011;10148;47.694;9.442;2023-01-16T08:45:11;0.53;;;0.47;;
19973;SDS011;10148;47.694;9.442;2023-01-16T08:47:56;0.50;;;0.33;;
19973;SDS011;10148;47.694;9.442;2023-01-16T08:50:41;0.33;;;0.30;;
19973;SDS011;10148;47.694;9.442;2023-01-16T08:53:26;0.93;;;0.30;;
19973;SDS011;10148;47.694;9.442;2023-01-16T08:55:52;0.30;;;0.30;;
19973;SDS011;10148;47.694;9.442;2023-01-16T08:58:17;0.60;;;0.60;;
19973;SDS011;10148;47.694;9.442;2023-01-16T09:00:46;1.10;;;0.83;;
19973;SDS011;10148;47.694;9.442;2023-01-16T09:03:12;1.00;;;1.00;;
19973;SDS011;10148;47.694;9.442;2023-01-16T09:05:39;1.03;;;0.70;;
19973;SDS011;10148;47.694;9.442;2023-01-16T09:08:04;0.97;;;0.50;;
19973;SDS011;10148;47.694;9.442;2023-01-16T09:10:30;1.20;;;0.40;;
19973;SDS011;10148;47.694;9.442;2023-01-16T09:12:56;0.57;;;0.40;;
19973;SDS011;10148;47.694;9.442;2023-01-16T09:15:40;0.80;;;0.60;;
19973;SDS011;10148;47.694;9.442;2023-01-16T09:18:06;4.60;;;0.63;;
19973;SDS011;10148;47.694;9.442;2023-01-16T09:20:32;0.80;;;0.40;;
19973;SDS011;10148;47.694;9.442;2023-01-16T09:22:58;0.60;;;0.40;;
19973;SDS011;10148;47.694;9.442;2023-01-16T09:25:24;0.40;;;0.30;;
19973;SDS011;10148;47.694;9.442;2023-01-16T09:27:50;0.30;;;0.30;;
19973;SDS011;10148;47.694;9.442;2023-01-16T09:30:16;1.83;;;1.00;;
19973;SDS011;10148;47.694;9.442;2023-01-16T09:32:43;0.53;;;0.40;;
19973;SDS011;10148;47.694;9.442;2023-01-16T09:35:10;0.40;;;0.37;;
19973;SDS011;10148;47.694;9.442;2023-01-16T09:37:35;0.50;;;0.30;;
19973;SDS011;10148;47.694;9.442;2023-01-16T09:40:01;1.23;;;0.60;;
19973;SDS011;10148;47.694;9.442;2023-01-16T09:42:39;0.23;;;0.20;;
19973;SDS011;10148;47.694;9.442;2023-01-16T09:45:45;0.53;;;0.40;;
19973;SDS011;10148;47.694;9.442;2023-01-16T09:48:32;0.97;;;0.47;;
19973;SDS011;10148;47.694;9.442;2023-01-16T09:51:22;0.80;;;0.33;;
19973;SDS011;10148;47.694;9.442;2023-01-16T09:53:50;0.90;;;0.50;;
19973;SDS011;10148;47.694;9.442;2023-01-16T09:56:40;0.63;;;0.50;;
19973;SDS011;10148;47.694;9.442;2023-01-16T09:59:28;1.03;;;0.73;;
19973;SDS011;10148;47.694;9.442;2023-01-16T10:04:32;0.83;;;0.50;;
19973;SDS011;10148;47.694;9.442;2023-01-16T10:07:05;0.50;;;0.30;;
19973;SDS011;10148;47.694;9.442;2023-01-16T10:12:37;0.60;;;0.60;;
19973;SDS011;10148;47.694;9.442;2023-01-16T10:15:13;1.47;;;0.70;;
19973;SDS011;10148;47.694;9.442;2023-01-16T10:18:14;0.70;;;0.70;;
19973;SDS011;10148;47.694;9.442;2023-01-16T10:20:57;0.70;;;0.60;;
19973;SDS011;10148;47.694;9.442;2023-01-16T10:23:46;0.90;;;0.53;;
19973;SDS011;10148;47.694;9.442;2023-01-16T10:26:42;1.00;;;0.50;;
19973;SDS011;10148;47.694;9.442;2023-01-16T10:29:32;0.97;;;0.60;;
19973;SDS011;10148;47.694;9.442;2023-01-16T10:32:14;0.40;;;0.40;;
19973;SDS011;10148;47.694;9.442;2023-01-16T10:34:51;0.90;;;0.40;;
19973;SDS011;10148;47.694;9.442;2023-01-16T10:37:25;0.80;;;0.40;;
19973;SDS011;10148;47.694;9.442;2023-01-16T10:39:52;1.10;;;0.50;;
19973;SDS011;10148;47.694;9.442;2023-01-16T10:42:19;1.00;;;0.60;;
19973;SDS011;10148;47.694;9.442;2023-01-16T10:45:09;0.87;;;0.50;;
19973;SDS011;10148;47.694;9.442;2023-01-16T10:48:04;0.53;;;0.50;;
19973;SDS011;10148;47.694;9.442;2023-01-16T10:50:56;0.90;;;0.57;;
19973;SDS011;10148;47.694;9.442;2023-01-16T10:53:22;0.73;;;0.60;;
19973;SDS011;10148;47.694;9.442;2023-01-16T10:55:48;1.53;;;0.80;;
19973;SDS011;10148;47.694;9.442;2023-01-16T10:58:24;5.23;;;1.33;;
19973;SDS011;10148;47.694;9.442;2023-01-16T11:00:57;1.10;;;0.80;;
19973;SDS011;10148;47.694;9.442;2023-01-16T11:03:35;2.43;;;0.97;;
19973;SDS011;10148;47.694;9.442;2023-01-16T11:06:05;1.50;;;0.90;;
19973;SDS011;10148;47.694;9.442;2023-01-16T11:08:37;1.60;;;1.13;;
19973;SDS011;10148;47.694;9.442;2023-01-16T11:11:03;2.37;;;1.20;;
19973;SDS011;10148;47.694;9.442;2023-01-16T11:13:29;2.03;;;1.30;;
19973;SDS011;10148;47.694;9.442;2023-01-16T11:16:20;1.43;;;1.20;;
19973;SDS011;10148;47.694;9.442;2023-01-16T11:21:57;2.53;;;1.53;;
19973;SDS011;10148;47.694;9.442;2023-01-16T11:24:34;2.40;;;1.07;;
19973;SDS011;10148;47.694;9.442;2023-01-16T11:27:07;2.83;;;1.37;;
19973;SDS011;10148;47.694;9.442;2023-01-16T11:29:39;1.57;;;1.40;;
19973;SDS011;10148;47.694;9.442;2023-01-16T11:32:08;2.77;;;1.30;;
19973;SDS011;10148;47.694;9.442;2023-01-16T11:34:37;2.07;;;1.30;;
19973;SDS011;10148;47.694;9.442;2023-01-16T11:37:09;2.90;;;1.70;;
19973;SDS011;10148;47.694;9.442;2023-01-16T11:39:37;2.13;;;1.27;;
19973;SDS011;10148;47.694;9.442;2023-01-16T11:42:04;4.23;;;1.00;;
19973;SDS011;10148;47.694;9.442;2023-01-16T11:44:57;1.67;;;1.13;;
19973;SDS011;10148;47.694;9.442;2023-01-16T11:47:43;1.87;;;1.10;;
19973;SDS011;10148;47.694;9.442;2023-01-16T11:50:29;4.00;;;1.10;;
19973;SDS011;10148;47.694;9.442;2023-01-16T11:52:57;2.83;;;1.77;;
19973;SDS011;10148;47.694;9.442;2023-01-16T11:55:39;1.63;;;1.17;;
19973;SDS011;10148;47.694;9.442;2023-01-16T12:01:46;3.03;;;1.10;;
19973;SDS011;10148;47.694;9.442;2023-01-16T12:04:50;4.73;;;1.20;;
19973;SDS011;10148;47.694;9.442;2023-01-16T12:08:02;6.43;;;2.50;;
19973;SDS011;10148;47.694;9.442;2023-01-16T12:13:43;8.77;;;2.93;;
19973;SDS011;10148;47.694;9.442;2023-01-16T12:16:51;10.43;;;4.30;;
19973;SDS011;10148;47.694;9.442;2023-01-16T12:43:53;3.20;;;1.00;;
19973;SDS011;10148;47.694;9.442;2023-01-16T12:46:42;3.33;;;1.20;;
19973;SDS011;10148;47.694;9.442;2023-01-16T12:49:29;3.67;;;1.87;;
19973;SDS011;10148;47.694;9.442;2023-01-16T12:52:21;2.57;;;1.50;;
19973;SDS011;10148;47.694;9.442;2023-01-16T12:58:34;2.27;;;1.13;;
19973;SDS011;10148;47.694;9.442;2023-01-16T13:03:47;3.07;;;1.20;;
19973;SDS011;10148;47.694;9.442;2023-01-16T13:06:53;1.33;;;1.03;;
19973;SDS011;10148;47.694;9.442;2023-01-16T13:09:34;2.90;;;0.93;;
19973;SDS011;10148;47.694;9.442;2023-01-16T13:12:10;14.60;;;7.23;;
19973;SDS011;10148;47.694;9.442;2023-01-16T13:15:06;7.30;;;3.00;;
19973;SDS011;10148;47.694;9.442;2023-01-16T13:18:01;16.83;;;7.20;;
19973;SDS011;10148;47.694;9.442;2023-01-16T13:20:25;14.47;;;6.57;;
19973;SDS011;10148;47.694;9.442;2023-01-16T13:22:52;3.20;;;1.67;;
19973;SDS011;10148;47.694;9.442;2023-01-16T13:25:24;2.77;;;1.17;;
19973;SDS011;10148;47.694;9.442;2023-01-16T13:30:53;1.90;;;1.23;;
19973;SDS011;10148;47.694;9.442;2023-01-16T13:33:22;1.70;;;1.17;;
19973;SDS011;10148;47.694;9.442;2023-01-16T13:41:50;6.70;;;2.53;;
19973;SDS011;10148;47.694;9.442;2023-01-16T13:44:21;4.77;;;2.80;;
19973;SDS011;10148;47.694;9.442;2023-01-16T13:47:14;2.43;;;0.90;;
19973;SDS011;10148;47.694;9.442;2023-01-16T13:49:44;1.00;;;0.60;;
19973;SDS011;10148;47.694;9.442;2023-01-16T13:52:18;0.80;;;0.60;;
19973;SDS011;10148;47.694;9.442;2023-01-16T13:54:51;1.03;;;0.60;;
19973;SDS011;10148;47.694;9.442;2023-01-16T13:57:20;3.80;;;1.20;;
19973;SDS011;10148;47.694;9.442;2023-01-16T14:10:45;2.87;;;2.57;;
19973;SDS011;10148;47.694;9.442;2023-01-16T14:13:34;4.53;;;2.13;;
19973;SDS011;10148;47.694;9.442;2023-01-16T14:16:26;2.87;;;1.30;;
19973;SDS011;10148;47.694;9.442;2023-01-16T14:21:23;2.47;;;1.20;;
19973;SDS011;10148;47.694;9.442;2023-01-16T14:23:52;2.43;;;1.20;;
19973;SDS011;10148;47.694;9.442;2023-01-16T14:28:59;3.17;;;1.37;;
19973;SDS011;10148;47.694;9.442;2023-01-16T14:31:42;2.73;;;1.30;;
19973;SDS011;10148;47.694;9.442;2023-01-16T14:34:21;5.47;;;1.43;;
19973;SDS011;10148;47.694;9.442;2023-01-16T14:36:52;1.53;;;1.20;;
19973;SDS011;10148;47.694;9.442;2023-01-16T14:39:26;2.87;;;1.60;;
19973;SDS011;10148;47.694;9.442;2023-01-16T14:42:08;4.30;;;1.43;;
19973;SDS011;10148;47.694;9.442;2023-01-16T14:48:12;3.07;;;2.10;;
19973;SDS011;10148;47.694;9.442;2023-01-16T14:54:06;3.07;;;1.07;;
19973;SDS011;10148;47.694;9.442;2023-01-16T14:57:16;1.67;;;1.27;;
19973;SDS011;10148;47.694;9.442;2023-01-16T15:02:21;2.50;;;1.20;;
19973;SDS011;10148;47.694;9.442;2023-01-16T15:04:57;1.80;;;1.17;;
19973;SDS011;10148;47.694;9.442;2023-01-16T15:07:40;2.63;;;0.87;;
19973;SDS011;10148;47.694;9.442;2023-01-16T15:10:13;1.87;;;1.07;;
19973;SDS011;10148;47.694;9.442;2023-01-16T15:12:42;2.60;;;1.33;;
19973;SDS011;10148;47.694;9.442;2023-01-16T15:17:49;1.07;;;0.90;;
19973;SDS011;10148;47.694;9.442;2023-01-16T15:20:35;2.20;;;1.10;;
19973;SDS011;10148;47.694;9.442;2023-01-16T15:28:35;2.70;;;1.47;;
19973;SDS011;10148;47.694;9.442;2023-01-16T15:31:14;3.87;;;1.80;;
19973;SDS011;10148;47.694;9.442;2023-01-16T15:33:41;1.07;;;0.90;;
19973;SDS011;10148;47.694;9.442;2023-01-16T15:38:52;2.87;;;1.77;;
19973;SDS011;10148;47.694;9.442;2023-01-16T15:41:22;4.80;;;2.40;;
19973;SDS011;10148;47.694;9.442;2023-01-16T15:44:26;13.53;;;4.90;;
19973;SDS011;10148;47.694;9.442;2023-01-16T15:49:46;16.97;;;6.83;;
19973;SDS011;10148;47.694;9.442;2023-01-16T15:52:40;6.70;;;2.33;;
19973;SDS011;10148;47.694;9.442;2023-01-16T15:55:09;2.50;;;1.40;;
19973;SDS011;10148;47.694;9.442;2023-01-16T15:57:50;2.40;;;1.33;;
19973;SDS011;10148;47.694;9.442;2023-01-16T16:02:57;1.17;;;0.90;;
19973;SDS011;10148;47.694;9.442;2023-01-16T16:05:47;2.50;;;1.63;;
19973;SDS011;10148;47.694;9.442;2023-01-16T16:08:23;3.03;;;1.60;;
19973;SDS011;10148;47.694;9.442;2023-01-16T16:10:51;3.40;;;2.30;;
19973;SDS011;10148;47.694;9.442;2023-01-16T16:13:37;2.53;;;1.00;;
19973;SDS011;10148;47.694;9.442;2023-01-16T16:16:15;2.17;;;1.50;;
19973;SDS011;10148;47.694;9.442;2023-01-16T16:19:10;2.80;;;1.10;;
19973;SDS011;10148;47.694;9.442;2023-01-16T16:21:55;1.30;;;0.60;;
19973;SDS011;10148;47.694;9.442;2023-01-16T16:24:41;0.60;;;0.50;;
19973;SDS011;10148;47.694;9.442;2023-01-16T16:27:07;1.23;;;0.80;;
19973;SDS011;10148;47.694;9.442;2023-01-16T16:29:38;0.70;;;0.50;;
19973;SDS011;10148;47.694;9.442;2023-01-16T16:32:05;1.70;;;0.40;;
19973;SDS011;10148;47.694;9.442;2023-01-16T16:34:36;1.77;;;0.50;;
19973;SDS011;10148;47.694;9.442;2023-01-16T16:37:02;1.50;;;0.50;;
19973;SDS011;10148;47.694;9.442;2023-01-16T16:39:43;0.50;;;0.40;;
19973;SDS011;10148;47.694;9.442;2023-01-16T16:47:38;1.30;;;0.80;;
19973;SDS011;10148;47.694;9.442;2023-01-16T16:55:36;1.23;;;0.20;;
19973;SDS011;10148;47.694;9.442;2023-01-16T16:58:11;1.20;;;0.83;;
19973;SDS011;10148;47.694;9.442;2023-01-16T17:00:46;2.07;;;1.23;;
19973;SDS011;10148;47.694;9.442;2023-01-16T17:03:16;1.23;;;0.67;;
19973;SDS011;10148;47.694;9.442;2023-01-16T17:05:44;0.30;;;0.30;;
19973;SDS011;10148;47.694;9.442;2023-01-16T17:08:21;1.93;;;1.57;;
19973;SDS011;10148;47.694;9.442;2023-01-16T17:10:49;0.20;;;0.10;;
19973;SDS011;10148;47.694;9.442;2023-01-16T17:13:19;0.63;;;0.10;;
19973;SDS011;10148;47.694;9.442;2023-01-16T17:15:47;0.17;;;0.17;;
19973;SDS011;10148;47.694;9.442;2023-01-16T17:18:15;0.00;;;0.00;;
19973;SDS011;10148;47.694;9.442;2023-01-16T17:20:41;0.20;;;0.10;;
19973;SDS011;10148;47.694;9.442;2023-01-16T17:23:11;0.10;;;0.10;;
19973;SDS011;10148;47.694;9.442;2023-01-16T17:25:38;0.20;;;0.20;;
19973;SDS011;10148;47.694;9.442;2023-01-16T17:28:05;0.30;;;0.23;;
19973;SDS011;10148;47.694;9.442;2023-01-16T17:30:31;0.23;;;0.23;;